Time;durP1;ratioP1;P1;durP2;ratioP2;P2;SDS_P1;SDS_P2;PMS_P1;PMS_P2;Temp;Humidity;BMP_temperature;BMP_pressure;BME280_temperature;BME280_humidity;BME280_pressure;Samples;Min_cycle;Max_cycle;Signal;HPM_P1;HPM_P2
2022/09/24 00:00:39;;;;;;;5.57;3.30;;;;;10.50;93835.00;;;;7414784;19;20131;-80
2022/09/24 00:03:07;;;;;;;4.22;3.10;;;;;10.50;93842.00;;;;7416854;19;20580;-81
2022/09/24 00:05:39;;;;;;;3.08;2.83;;;;;10.50;93838.00;;;;7404843;19;20152;-81
2022/09/24 00:08:16;;;;;;;5.85;3.90;;;;;10.40;93838.00;;;;7406942;19;20148;-80
2022/09/24 00:10:45;;;;;;;4.57;3.20;;;;;10.30;93832.00;;;;7413652;19;20174;-81
2022/09/24 00:13:34;;;;;;;6.97;3.00;;;;;10.60;93831.00;;;;7402345;19;20539;-80
2022/09/24 00:16:11;;;;;;;6.05;3.40;;;;;10.50;93830.00;;;;7402216;19;20177;-80
2022/09/24 00:18:46;;;;;;;5.20;2.97;;;;;10.50;93830.00;;;;7405301;19;20141;-79
2022/09/24 00:21:20;;;;;;;5.53;3.03;;;;;10.60;93827.00;;;;7403129;19;20130;-81
2022/09/24 00:24:09;;;;;;;4.60;3.03;;;;;10.50;93836.00;;;;7412008;19;20134;-80
2022/09/24 00:26:50;;;;;;;7.72;3.80;;;;;10.40;93833.00;;;;7413263;19;20187;-80
2022/09/24 00:29:24;;;;;;;3.30;3.00;;;;;10.30;93832.00;;;;7409316;19;20129;-80
2022/09/24 00:31:52;;;;;;;3.25;2.65;;;;;10.20;93823.00;;;;7410752;19;20156;-81
2022/09/24 00:34:20;;;;;;;6.43;3.17;;;;;10.10;93818.00;;;;7404024;19;20133;-79
2022/09/24 00:36:54;;;;;;;8.13;3.23;;;;;10.10;93810.00;;;;7406314;19;20220;-81
2022/09/24 00:39:22;;;;;;;3.80;3.20;;;;;10.00;93811.00;;;;7406649;19;20628;-80
2022/09/24 00:41:49;;;;;;;8.17;3.00;;;;;10.00;93803.00;;;;7403816;19;20137;-80
2022/09/24 00:44:43;;;;;;;6.47;3.20;;;;;10.00;93797.00;;;;7407889;19;20152;-81
2022/09/24 00:47:26;;;;;;;4.77;3.30;;;;;10.00;93799.00;;;;7402226;19;20532;-80
2022/09/24 00:50:22;;;;;;;7.80;3.90;;;;;9.80;93801.00;;;;7403012;19;20156;-81
2022/09/24 00:52:57;;;;;;;4.20;2.90;;;;;9.80;93797.00;;;;7398145;19;20149;-80
2022/09/24 00:55:35;;;;;;;5.00;3.63;;;;;9.60;93802.00;;;;7401650;19;20153;-80
2022/09/24 00:58:07;;;;;;;4.78;3.33;;;;;9.60;93804.00;;;;7404879;19;20164;-80
2022/09/24 01:00:44;;;;;;;7.03;3.40;;;;;9.40;93797.00;;;;7397638;19;20192;-75
2022/09/24 01:03:15;;;;;;;6.50;3.27;;;;;9.60;93798.00;;;;7393331;19;20137;-77
2022/09/24 01:05:49;;;;;;;5.63;3.63;;;;;9.40;93786.00;;;;7393127;19;20611;-76
2022/09/24 01:08:19;;;;;;;5.10;4.00;;;;;9.40;93783.00;;;;7392952;19;20136;-77
2022/09/24 01:10:49;;;;;;;4.47;3.73;;;;;9.40;93784.00;;;;7393178;19;20153;-76
2022/09/24 01:13:47;;;;;;;4.40;4.00;;;;;9.30;93797.00;;;;7391688;19;20677;-77
2022/09/24 01:16:46;;;;;;;7.23;4.00;;;;;9.30;93778.00;;;;7393397;19;20140;-76
2022/09/24 01:19:58;;;;;;;10.10;4.60;;;;;9.50;93777.00;;;;7388834;19;20117;-76
2022/09/24 01:22:54;;;;;;;8.37;4.53;;;;;9.50;93779.00;;;;7389610;19;20141;-77
2022/09/24 01:25:31;;;;;;;9.27;4.70;;;;;9.30;93770.00;;;;7391219;19;20587;-76
2022/09/24 01:28:29;;;;;;;5.80;5.20;;;;;9.30;93764.00;;;;7393096;19;20139;-76
2022/09/24 01:31:16;;;;;;;12.33;5.47;;;;;9.60;93768.00;;;;7391674;19;20129;-77
2022/09/24 01:33:47;;;;;;;8.63;5.77;;;;;9.50;93751.00;;;;7389019;19;20121;-76
2022/09/24 01:36:24;;;;;;;6.53;5.13;;;;;9.60;93751.00;;;;7390832;19;20144;-76
2022/09/24 01:38:54;;;;;;;9.83;6.03;;;;;9.70;93755.00;;;;7390515;19;20132;-76
2022/09/24 01:41:29;;;;;;;7.70;5.07;;;;;9.80;93746.00;;;;7394076;19;20127;-76
2022/09/24 01:43:59;;;;;;;7.83;5.60;;;;;9.70;93744.00;;;;7390999;19;20113;-76
2022/09/24 01:46:26;;;;;;;7.93;5.60;;;;;9.80;93743.00;;;;7392755;19;20629;-76
2022/09/24 01:49:00;;;;;;;6.87;5.40;;;;;9.80;93739.00;;;;7390463;19;20596;-76
2022/09/24 01:51:37;;;;;;;12.03;6.93;;;;;10.00;93734.00;;;;7390265;19;20141;-76
2022/09/24 01:54:23;;;;;;;7.67;5.40;;;;;9.80;93730.00;;;;7391472;19;20129;-76
2022/09/24 01:57:10;;;;;;;12.30;6.10;;;;;9.80;93733.00;;;;7389643;19;20124;-76
2022/09/24 01:59:51;;;;;;;7.00;5.00;;;;;9.70;93726.00;;;;7389126;19;20152;-76
2022/09/24 02:02:28;;;;;;;8.43;5.50;;;;;9.90;93721.00;;;;7388807;19;20131;-76
2022/09/24 02:05:41;;;;;;;6.95;4.85;;;;;9.80;93728.00;;;;7401267;19;20625;-76
2022/09/24 02:08:25;;;;;;;8.10;5.67;;;;;9.80;93728.00;;;;7396439;19;20166;-75
2022/09/24 02:11:06;;;;;;;10.57;5.97;;;;;10.00;93725.00;;;;7398237;19;20125;-76
2022/09/24 02:13:52;;;;;;;7.83;6.80;;;;;10.10;93732.00;;;;7393440;19;20197;-75
2022/09/24 02:16:40;;;;;;;9.43;5.77;;;;;10.30;93724.00;;;;7399240;19;20133;-76
2022/09/24 02:19:15;;;;;;;11.53;6.77;;;;;10.10;93725.00;;;;7397552;19;20159;-76
2022/09/24 02:21:50;;;;;;;5.93;5.10;;;;;10.20;93722.00;;;;7396438;19;20133;-76
2022/09/24 02:24:22;;;;;;;7.10;5.57;;;;;10.10;93723.00;;;;7398488;19;20200;-77
2022/09/24 02:26:56;;;;;;;9.20;5.72;;;;;10.20;93718.00;;;;7397153;19;20125;-76
2022/09/24 02:29:24;;;;;;;15.52;6.55;;;;;10.30;93706.00;;;;7396631;19;20212;-76
2022/09/24 02:31:55;;;;;;;6.83;5.43;;;;;10.30;93708.00;;;;7395486;19;20121;-76
2022/09/24 02:34:38;;;;;;;8.10;5.70;;;;;10.30;93712.00;;;;7393909;19;20655;-76
2022/09/24 02:37:14;;;;;;;10.68;6.28;;;;;10.40;93722.00;;;;7394088;19;20135;-76
2022/09/24 02:39:49;;;;;;;8.97;5.23;;;;;10.50;93711.00;;;;7398662;19;20503;-76
2022/09/24 02:42:19;;;;;;;7.07;6.20;;;;;10.50;93718.00;;;;7395204;19;20147;-75
2022/09/24 02:44:46;;;;;;;8.30;6.27;;;;;10.50;93726.00;;;;7397513;19;20169;-77
2022/09/24 02:47:22;;;;;;;9.83;5.63;;;;;10.60;93731.00;;;;7394708;19;20157;-76
2022/09/24 02:49:50;;;;;;;10.15;7.85;;;;;10.60;93721.00;;;;7399830;19;20663;-75
2022/09/24 02:52:20;;;;;;;13.25;6.32;;;;;10.70;93723.00;;;;7397663;19;20125;-76
2022/09/24 02:54:54;;;;;;;6.65;5.70;;;;;10.80;93719.00;;;;7394158;19;20557;-76
2022/09/24 02:57:21;;;;;;;6.33;5.63;;;;;10.80;93711.00;;;;7397247;19;20152;-75
2022/09/24 02:59:49;;;;;;;7.20;5.63;;;;;10.70;93702.00;;;;7396103;19;20200;-76
2022/09/24 03:02:25;;;;;;;8.23;5.82;;;;;10.80;93703.00;;;;7394889;19;20152;-75
2022/09/24 03:04:54;;;;;;;13.68;7.22;;;;;10.80;93702.00;;;;7394863;19;20140;-76
2022/09/24 03:07:21;;;;;;;5.82;5.22;;;;;10.70;93704.00;;;;7397163;19;20136;-75
2022/09/24 03:09:56;;;;;;;10.63;7.18;;;;;10.80;93692.00;;;;7394107;19;20140;-75
2022/09/24 03:12:24;;;;;;;6.88;6.18;;;;;10.80;93691.00;;;;7394913;19;20180;-77
2022/09/24 03:14:54;;;;;;;8.30;6.03;;;;;10.90;93690.00;;;;7393957;19;20168;-74
2022/09/24 03:17:29;;;;;;;6.78;5.55;;;;;10.90;93690.00;;;;7398512;19;20128;-75
2022/09/24 03:19:57;;;;;;;11.05;5.30;;;;;10.90;93688.00;;;;7397312;19;20615;-75
2022/09/24 03:22:24;;;;;;;7.75;5.90;;;;;10.70;93690.00;;;;7395116;19;20137;-76
2022/09/24 03:24:58;;;;;;;5.13;4.63;;;;;10.60;93686.00;;;;7397174;19;20583;-75
2022/09/24 03:27:26;;;;;;;9.85;5.70;;;;;10.60;93680.00;;;;7394707;19;20128;-74
2022/09/24 03:32:48;;;;;;;7.28;4.97;;;;;10.50;93693.00;;;;7393142;19;20706;-74
2022/09/24 03:35:15;;;;;;;6.25;5.05;;;;;10.50;93700.00;;;;7393982;19;20137;-76
2022/09/24 03:37:44;;;;;;;9.88;5.57;;;;;10.60;93702.00;;;;7392871;19;20208;-78
2022/09/24 03:40:17;;;;;;;7.38;5.35;;;;;10.70;93712.00;;;;7398298;19;20155;-77
2022/09/24 03:42:47;;;;;;;7.65;5.90;;;;;10.60;93698.00;;;;7393117;19;20611;-75
2022/09/24 03:45:15;;;;;;;9.00;5.47;;;;;10.70;93693.00;;;;7396854;19;20193;-75
2022/09/24 03:47:49;;;;;;;7.63;5.70;;;;;10.60;93689.00;;;;7393855;19;20151;-76
2022/09/24 03:50:17;;;;;;;11.38;6.50;;;;;10.80;93687.00;;;;7397282;19;20136;-76
2022/09/24 03:52:44;;;;;;;10.32;6.55;;;;;10.90;93685.00;;;;7396319;19;20642;-75
2022/09/24 03:55:18;;;;;;;11.18;7.28;;;;;10.90;93681.00;;;;7391675;19;20471;-75
2022/09/24 03:57:46;;;;;;;9.38;6.60;;;;;10.90;93684.00;;;;7394484;19;20125;-78
2022/09/24 04:00:13;;;;;;;10.25;6.30;;;;;10.80;93676.00;;;;7395024;19;20159;-75
2022/09/24 04:02:48;;;;;;;7.25;5.22;;;;;10.90;93680.00;;;;7392462;19;20152;-75
2022/09/24 04:05:16;;;;;;;12.07;5.50;;;;;10.90;93685.00;;;;7395712;19;20612;-75
2022/09/24 04:07:45;;;;;;;8.85;5.97;;;;;10.90;93674.00;;;;7392638;19;20237;-74
2022/09/24 04:10:19;;;;;;;13.63;5.40;;;;;10.90;93679.00;;;;7394666;19;20201;-77
2022/09/24 04:12:46;;;;;;;6.88;5.68;;;;;11.00;93671.00;;;;7394312;19;20180;-77
2022/09/24 04:15:14;;;;;;;8.10;4.80;;;;;11.00;93669.00;;;;7394299;19;20150;-75
2022/09/24 04:17:52;;;;;;;6.65;5.32;;;;;11.00;93677.00;;;;7397146;19;20136;-75
2022/09/24 04:20:22;;;;;;;8.00;5.13;;;;;11.00;93670.00;;;;7395132;19;20125;-75
2022/09/24 04:22:58;;;;;;;6.82;4.60;;;;;11.00;93670.00;;;;7396286;19;20588;-77
2022/09/24 04:25:29;;;;;;;8.93;4.68;;;;;10.70;93668.00;;;;7397990;19;20596;-75
2022/09/24 04:28:01;;;;;;;6.40;4.85;;;;;10.80;93664.00;;;;7397349;19;20132;-77
2022/09/24 04:30:39;;;;;;;8.40;4.35;;;;;10.80;93666.00;;;;7397557;19;20145;-74
2022/09/24 04:33:07;;;;;;;5.63;4.88;;;;;10.90;93658.00;;;;7396389;19;20157;-77
2022/09/24 04:35:35;;;;;;;4.97;4.05;;;;;10.80;93658.00;;;;7395455;19;20480;-78
2022/09/24 04:38:10;;;;;;;5.70;4.60;;;;;10.70;93663.00;;;;7394622;19;20180;-77
2022/09/24 04:40:38;;;;;;;6.40;4.38;;;;;10.80;93660.00;;;;7394237;19;20156;-77
2022/09/24 04:43:06;;;;;;;6.35;4.43;;;;;10.90;93665.00;;;;7391469;19;20141;-77
2022/09/24 04:45:42;;;;;;;6.57;4.80;;;;;10.80;93663.00;;;;7396299;19;20481;-78
2022/09/24 04:48:10;;;;;;;6.15;4.15;;;;;10.90;93653.00;;;;7391880;19;20148;-78
2022/09/24 04:50:38;;;;;;;8.80;4.50;;;;;11.00;93663.00;;;;7393371;19;20619;-77
2022/09/24 04:53:13;;;;;;;5.20;4.28;;;;;10.90;93658.00;;;;7391397;19;20144;-76
2022/09/24 04:55:40;;;;;;;4.97;4.00;;;;;10.90;93670.00;;;;7392020;19;20153;-76
2022/09/24 04:58:09;;;;;;;6.80;3.97;;;;;10.90;93664.00;;;;7391725;19;20135;-77
2022/09/24 05:00:42;;;;;;;4.05;3.65;;;;;10.80;93675.00;;;;7394740;19;20147;-76
2022/09/24 05:03:09;;;;;;;6.10;3.92;;;;;11.10;93670.00;;;;7392585;19;20149;-77
2022/09/24 05:05:37;;;;;;;11.23;4.25;;;;;11.20;93666.00;;;;7389817;19;20629;-77
2022/09/24 05:08:12;;;;;;;4.50;3.70;;;;;11.00;93659.00;;;;7385657;19;20144;-76
2022/09/24 05:10:40;;;;;;;4.28;3.40;;;;;11.10;93669.00;;;;7393459;19;20180;-77
2022/09/24 05:13:08;;;;;;;5.32;3.78;;;;;11.10;93669.00;;;;7390464;19;20139;-76
2022/09/24 05:15:49;;;;;;;5.25;3.58;;;;;11.10;93659.00;;;;7390634;19;20174;-76
2022/09/24 05:18:16;;;;;;;5.18;3.30;;;;;11.10;93671.00;;;;7389862;19;20153;-76
2022/09/24 05:20:50;;;;;;;8.10;2.90;;;;;11.00;93669.00;;;;7393098;19;20158;-78
2022/09/24 05:23:17;;;;;;;3.92;3.53;;;;;11.00;93671.00;;;;7389921;19;20136;-76
2022/09/24 05:28:41;;;;;;;3.72;3.22;;;;;10.90;93678.00;;;;7390387;19;20602;-78
2022/09/24 05:31:09;;;;;;;4.43;3.22;;;;;11.00;93675.00;;;;7390657;19;20189;-76
2022/09/24 05:33:39;;;;;;;6.13;3.50;;;;;11.00;93673.00;;;;7391010;19;20173;-76
2022/09/24 05:36:14;;;;;;;5.35;3.00;;;;;11.00;93676.00;;;;7388363;19;20166;-76
2022/09/24 05:38:42;;;;;;;4.25;2.95;;;;;10.90;93676.00;;;;7390760;19;20604;-76
2022/09/24 05:41:12;;;;;;;6.00;3.78;;;;;10.90;93679.00;;;;7386680;19;20608;-76
2022/09/24 05:43:47;;;;;;;6.07;3.15;;;;;11.00;93670.00;;;;7388651;19;20631;-76
2022/09/24 05:46:15;;;;;;;4.90;2.83;;;;;11.20;93685.00;;;;7388344;19;20165;-77
2022/09/24 05:48:42;;;;;;;5.53;3.28;;;;;11.40;93679.00;;;;7390054;19;20129;-76
2022/09/24 05:51:17;;;;;;;4.43;3.70;;;;;11.40;93674.00;;;;7389756;19;20141;-77
2022/09/24 05:53:47;;;;;;;7.13;3.22;;;;;11.20;93673.00;;;;7393301;19;20144;-76
2022/09/24 05:56:16;;;;;;;3.42;3.13;;;;;11.30;93676.00;;;;7390525;19;20591;-76
2022/09/24 05:58:53;;;;;;;4.60;2.85;;;;;11.20;93674.00;;;;7391505;19;20511;-75
2022/09/24 06:01:21;;;;;;;5.47;3.05;;;;;11.20;93676.00;;;;7391849;19;20459;-76
2022/09/24 06:03:50;;;;;;;5.45;3.53;;;;;11.40;93678.00;;;;7392238;19;20629;-75
2022/09/24 06:06:25;;;;;;;6.80;3.00;;;;;11.40;93683.00;;;;7390454;19;20142;-75
2022/09/24 06:08:54;;;;;;;3.20;2.90;;;;;11.40;93694.00;;;;7391046;19;20172;-76
2022/09/24 06:11:22;;;;;;;4.68;3.00;;;;;11.50;93688.00;;;;7389684;19;20148;-76
2022/09/24 06:14:04;;;;;;;8.70;3.17;;;;;11.70;93697.00;;;;7390365;19;20173;-77
2022/09/24 06:16:38;;;;;;;6.97;3.95;;;;;11.90;93693.00;;;;7392189;19;20152;-75
2022/09/24 06:19:13;;;;;;;5.65;3.70;;;;;12.00;93692.00;;;;7392939;19;20626;-77
2022/09/24 06:21:42;;;;;;;3.70;3.40;;;;;12.10;93695.00;;;;7391046;19;20623;-76
2022/09/24 06:24:11;;;;;;;6.47;3.70;;;;;12.10;93693.00;;;;7389850;19;20157;-77
2022/09/24 06:26:45;;;;;;;7.60;3.72;;;;;12.20;93694.00;;;;7394038;19;20129;-77
2022/09/24 06:29:12;;;;;;;8.32;3.67;;;;;12.20;93698.00;;;;7389693;19;20136;-77
2022/09/24 06:31:40;;;;;;;5.40;3.47;;;;;12.20;93692.00;;;;7390271;19;20204;-76
2022/09/24 06:34:14;;;;;;;5.10;3.30;;;;;12.20;93696.00;;;;7391500;19;20591;-76
2022/09/24 06:36:42;;;;;;;4.90;3.50;;;;;12.30;93690.00;;;;7386342;19;20138;-74
2022/09/24 06:39:09;;;;;;;6.88;3.83;;;;;12.30;93702.00;;;;7391095;19;20610;-75
2022/09/24 06:41:42;;;;;;;8.73;4.25;;;;;12.40;93698.00;;;;7389266;19;20215;-75
2022/09/24 06:44:10;;;;;;;7.43;4.32;;;;;12.50;93703.00;;;;7392069;19;20212;-75
2022/09/24 06:46:37;;;;;;;4.55;3.97;;;;;12.50;93700.00;;;;7387068;19;20614;-75
2022/09/24 06:49:12;;;;;;;7.05;3.95;;;;;12.60;93704.00;;;;7391834;19;20621;-76
2022/09/24 06:51:39;;;;;;;5.40;3.78;;;;;12.60;93700.00;;;;7396462;19;20138;-75
2022/09/24 06:54:07;;;;;;;8.52;3.90;;;;;12.60;93697.00;;;;7398171;19;20168;-75
2022/09/24 06:56:41;;;;;;;6.85;4.50;;;;;12.80;93701.00;;;;7398991;19;20766;-76
2022/09/24 06:59:08;;;;;;;4.50;3.80;;;;;12.90;93704.00;;;;7399722;19;20149;-75
2022/09/24 07:01:36;;;;;;;8.65;3.33;;;;;13.00;93713.00;;;;7397371;19;20133;-75
2022/09/24 07:04:12;;;;;;;6.13;3.65;;;;;13.00;93710.00;;;;7399570;19;20136;-76
2022/09/24 07:09:32;;;;;;;8.73;4.28;;;;;13.00;93713.00;;;;7397051;19;20157;-74
2022/09/24 07:12:03;;;;;;;6.22;3.67;;;;;13.00;93716.00;;;;7395762;19;20172;-75
2022/09/24 07:14:31;;;;;;;5.03;3.92;;;;;13.00;93710.00;;;;7396095;19;20164;-74
2022/09/24 07:17:11;;;;;;;4.30;3.83;;;;;13.00;93712.00;;;;7398852;19;20145;-75
2022/09/24 07:19:39;;;;;;;5.47;3.97;;;;;13.20;93713.00;;;;7396802;19;20124;-75
2022/09/24 07:22:13;;;;;;;7.97;4.05;;;;;13.20;93717.00;;;;7397930;19;20137;-75
2022/09/24 07:24:41;;;;;;;6.32;3.80;;;;;13.30;93717.00;;;;7395677;19;20623;-77
2022/09/24 07:27:09;;;;;;;5.30;3.97;;;;;13.30;93720.00;;;;7395513;19;20149;-74
2022/09/24 07:29:43;;;;;;;6.50;4.03;;;;;13.40;93722.00;;;;7396030;19;20180;-74
2022/09/24 07:32:10;;;;;;;7.10;3.38;;;;;13.50;93716.00;;;;7398593;19;20179;-75
2022/09/24 07:34:39;;;;;;;8.27;3.50;;;;;13.50;93722.00;;;;7396278;19;20143;-74
2022/09/24 07:37:13;;;;;;;7.45;3.40;;;;;13.50;93729.00;;;;7396076;19;20140;-75
2022/09/24 07:39:41;;;;;;;6.10;3.38;;;;;13.50;93733.00;;;;7395769;19;20127;-74
2022/09/24 07:42:08;;;;;;;10.20;3.67;;;;;13.50;93730.00;;;;7397833;19;20141;-76
2022/09/24 07:44:43;;;;;;;5.70;2.90;;;;;13.40;93739.00;;;;7398204;19;20128;-74
2022/09/24 07:47:10;;;;;;;5.75;3.20;;;;;13.40;93734.00;;;;7397487;19;20125;-75
2022/09/24 07:49:42;;;;;;;7.35;3.42;;;;;13.40;93736.00;;;;7396068;19;20138;-75
2022/09/24 07:52:16;;;;;;;4.55;2.63;;;;;13.30;93742.00;;;;7393655;19;20139;-75
2022/09/24 07:54:43;;;;;;;4.90;2.70;;;;;13.40;93742.00;;;;7394333;19;20148;-75
2022/09/24 07:57:14;;;;;;;3.97;2.72;;;;;13.40;93745.00;;;;7397983;19;20136;-74
2022/09/24 07:59:50;;;;;;;3.25;2.53;;;;;13.30;93738.00;;;;7396634;19;20200;-74
2022/09/24 08:02:18;;;;;;;3.00;2.45;;;;;13.50;93736.00;;;;7388955;19;20144;-74
2022/09/24 08:04:46;;;;;;;2.50;2.20;;;;;13.60;93739.00;;;;7397402;19;20141;-74
2022/09/24 08:07:22;;;;;;;3.97;2.75;;;;;13.40;93743.00;;;;7391833;19;20212;-75
2022/09/24 08:09:49;;;;;;;3.50;2.38;;;;;13.30;93741.00;;;;7394832;19;20133;-76
2022/09/24 08:12:16;;;;;;;5.57;2.28;;;;;13.40;93746.00;;;;7394106;19;20161;-76
2022/09/24 08:15:04;;;;;;;2.63;2.20;;;;;13.30;93739.00;;;;7391769;19;20168;-76
2022/09/24 08:17:39;;;;;;;2.30;2.10;;;;;13.30;93747.00;;;;7398865;19;20152;-76
2022/09/24 08:20:16;;;;;;;2.20;2.00;;;;;13.40;93745.00;;;;7397010;19;20129;-75
2022/09/24 08:22:44;;;;;;;2.50;2.30;;;;;13.50;93755.00;;;;7398733;19;20148;-76
2022/09/24 08:25:12;;;;;;;4.40;2.83;;;;;13.60;93750.00;;;;7398656;19;20128;-76
2022/09/24 08:27:46;;;;;;;2.85;2.20;;;;;13.50;93753.00;;;;7397861;19;20620;-76
2022/09/24 08:30:13;;;;;;;2.20;2.00;;;;;13.50;93757.00;;;;7391064;19;20220;-77
2022/09/24 08:32:47;;;;;;;2.85;2.00;;;;;13.40;93759.00;;;;7395719;19;20133;-77
2022/09/24 08:35:21;;;;;;;3.00;2.15;;;;;13.40;93762.00;;;;7394521;19;20660;-78
2022/09/24 08:37:48;;;;;;;2.92;2.30;;;;;13.50;93761.00;;;;7394398;19;20125;-76
2022/09/24 08:40:26;;;;;;;2.38;2.05;;;;;13.60;93751.00;;;;7395169;19;20148;-77
2022/09/24 08:43:08;;;;;;;2.55;2.33;;;;;13.90;93752.00;;;;7392328;19;20212;-76
2022/09/24 08:49:38;;;;;;;4.85;2.50;;;;;14.20;93762.00;;;;7392069;19;20155;-76
2022/09/24 08:52:28;;;;;;;2.78;2.35;;;;;14.10;93757.00;;;;7394082;19;20152;-75
2022/09/24 08:55:11;;;;;;;2.38;2.17;;;;;14.30;93754.00;;;;7392970;19;20148;-74
2022/09/24 08:58:11;;;;;;;2.83;2.17;;;;;14.40;93751.00;;;;7395597;19;20144;-75
2022/09/24 09:00:58;;;;;;;3.40;2.22;;;;;14.50;93756.00;;;;7393079;19;20136;-75
2022/09/24 09:03:50;;;;;;;3.30;2.10;;;;;14.40;93753.00;;;;7395088;19;20147;-76
2022/09/24 09:06:42;;;;;;;1.85;1.70;;;;;14.20;93757.00;;;;7394797;19;20200;-76
2022/09/24 09:09:24;;;;;;;2.40;2.20;;;;;14.20;93751.00;;;;7393429;19;20196;-77
2022/09/24 09:12:02;;;;;;;2.67;1.67;;;;;14.10;93756.00;;;;7392026;19;20599;-76
2022/09/24 09:14:44;;;;;;;2.78;1.80;;;;;14.20;93752.00;;;;7391329;19;20177;-75
2022/09/24 09:17:41;;;;;;;2.22;1.88;;;;;14.20;93754.00;;;;7395778;19;20175;-75
2022/09/24 09:20:23;;;;;;;2.88;1.98;;;;;14.40;93747.00;;;;7390921;19;20157;-75
2022/09/24 09:23:02;;;;;;;2.58;1.70;;;;;14.50;93747.00;;;;7388265;19;20145;-75
2022/09/24 09:25:35;;;;;;;2.40;2.20;;;;;14.70;93747.00;;;;7395123;19;21245;-75
2022/09/24 09:28:17;;;;;;;2.38;1.60;;;;;14.90;93749.00;;;;7392563;19;20143;-75
2022/09/24 09:30:58;;;;;;;2.83;1.80;;;;;15.00;93749.00;;;;7394147;19;20132;-78
2022/09/24 09:33:47;;;;;;;1.75;1.58;;;;;15.10;93741.00;;;;7393038;19;20145;-76
2022/09/24 09:36:39;;;;;;;1.77;1.42;;;;;15.60;93742.00;;;;7391709;19;20161;-74
2022/09/24 09:39:49;;;;;;;1.40;1.30;;;;;15.80;93732.00;;;;7392944;19;20156;-75
2022/09/24 09:42:32;;;;;;;1.83;1.55;;;;;15.70;93719.00;;;;7391629;19;20128;-76
2022/09/24 09:45:21;;;;;;;2.05;1.83;;;;;16.00;93747.00;;;;7391637;19;21173;-74
2022/09/24 09:47:56;;;;;;;1.63;1.45;;;;;16.10;93746.00;;;;7392025;19;20133;-74
2022/09/24 09:50:38;;;;;;;2.15;1.70;;;;;16.00;93742.00;;;;7390080;19;20189;-75
2022/09/24 09:53:16;;;;;;;1.65;1.40;;;;;15.90;93746.00;;;;7391707;19;20216;-76
2022/09/24 09:55:56;;;;;;;2.88;1.88;;;;;15.60;93749.00;;;;7392752;19;20155;-75
2022/09/24 09:58:25;;;;;;;1.40;1.30;;;;;15.60;93753.00;;;;7388562;19;20157;-78
2022/09/24 10:01:17;;;;;;;1.88;1.65;;;;;15.10;93754.00;;;;7387894;19;20601;-77
2022/09/24 10:03:48;;;;;;;1.55;1.45;;;;;15.00;93755.00;;;;7385897;19;20611;-76
2022/09/24 10:06:27;;;;;;;2.10;1.60;;;;;14.60;93759.00;;;;7391477;19;20148;-75
2022/09/24 10:09:20;;;;;;;1.80;1.70;;;;;14.60;93758.00;;;;7386906;19;20163;-74
2022/09/24 10:12:04;;;;;;;1.60;1.50;;;;;14.40;93769.00;;;;7392428;19;20193;-74
2022/09/24 10:14:38;;;;;;;2.50;1.60;;;;;14.20;93769.00;;;;7388992;19;20509;-74
2022/09/24 10:17:24;;;;;;;1.70;1.60;;;;;14.30;93766.00;;;;7391883;19;20189;-74
2022/09/24 10:19:51;;;;;;;1.75;1.60;;;;;14.30;93764.00;;;;7391976;19;20137;-75
2022/09/24 10:22:28;;;;;;;2.10;1.90;;;;;14.10;93764.00;;;;7390364;19;20174;-76
2022/09/24 10:24:58;;;;;;;1.67;1.35;;;;;14.50;93757.00;;;;7396628;19;20152;-74
2022/09/24 10:27:35;;;;;;;3.55;1.83;;;;;14.60;93754.00;;;;7398796;19;20152;-76
2022/09/24 10:30:32;;;;;;;3.40;1.70;;;;;15.00;93756.00;;;;7397277;19;20604;-77
2022/09/24 10:33:07;;;;;;;1.63;1.52;;;;;15.10;93751.00;;;;7398453;19;20133;-77
2022/09/24 10:35:37;;;;;;;1.85;1.38;;;;;15.00;93758.00;;;;7398361;19;20129;-77
2022/09/24 10:38:15;;;;;;;3.38;1.52;;;;;15.20;93757.00;;;;7400695;19;20168;-75
2022/09/24 10:40:50;;;;;;;3.15;1.55;;;;;15.00;93757.00;;;;7396679;19;20614;-76
2022/09/24 10:43:20;;;;;;;5.60;1.60;;;;;15.20;93755.00;;;;7399297;19;20120;-76
2022/09/24 10:46:07;;;;;;;1.90;1.67;;;;;15.20;93755.00;;;;7400086;19;20486;-77
2022/09/24 10:48:48;;;;;;;2.42;1.48;;;;;14.80;93758.00;;;;7397460;19;20195;-75
2022/09/24 10:51:30;;;;;;;2.13;1.83;;;;;14.60;93761.00;;;;7398127;19;20169;-76
2022/09/24 10:54:20;;;;;;;1.80;1.60;;;;;14.60;93761.00;;;;7400362;19;20584;-76
2022/09/24 10:56:53;;;;;;;1.60;1.50;;;;;14.40;93757.00;;;;7395295;19;20171;-75
2022/09/24 10:59:48;;;;;;;4.97;1.88;;;;;14.50;93761.00;;;;7397175;19;20168;-76
2022/09/24 11:02:27;;;;;;;4.00;1.77;;;;;14.50;93754.00;;;;7395667;19;20133;-74
2022/09/24 11:05:14;;;;;;;1.80;1.70;;;;;14.40;93771.00;;;;7395338;19;20156;-76
2022/09/24 11:08:17;;;;;;;2.13;1.85;;;;;14.10;93766.00;;;;7397240;19;20629;-75
2022/09/24 11:11:03;;;;;;;6.72;3.75;;;;;13.90;93768.00;;;;7396200;19;20702;-75
2022/09/24 11:13:45;;;;;;;2.72;2.10;;;;;13.70;93771.00;;;;7393718;19;20643;-75
2022/09/24 11:16:46;;;;;;;4.32;2.20;;;;;13.70;93769.00;;;;7391867;19;20193;-75
2022/09/24 11:19:40;;;;;;;1.77;1.63;;;;;13.40;93773.00;;;;7399597;19;20523;-76
2022/09/24 11:22:35;;;;;;;2.40;2.20;;;;;13.30;93770.00;;;;7396425;19;20626;-76
2022/09/24 11:25:13;;;;;;;2.67;2.00;;;;;13.10;93777.00;;;;7395714;19;20145;-76
2022/09/24 11:27:59;;;;;;;4.22;2.15;;;;;13.00;93773.00;;;;7394259;19;20132;-78
2022/09/24 11:30:47;;;;;;;2.72;2.30;;;;;13.10;93781.00;;;;7399553;19;20152;-76
2022/09/24 11:33:59;;;;;;;3.65;2.80;;;;;13.20;93766.00;;;;7404026;19;20157;-80
2022/09/24 11:36:52;;;;;;;3.40;2.47;;;;;13.20;93767.00;;;;7400912;19;20154;-77
2022/09/24 11:40:09;;;;;;;2.40;2.20;;;;;13.10;93763.00;;;;7416813;19;20173;-77
2022/09/24 11:42:53;;;;;;;5.60;3.08;;;;;13.00;93761.00;;;;7403486;19;20133;-78
2022/09/24 11:45:37;;;;;;;3.00;2.75;;;;;13.10;93765.00;;;;7399726;19;20198;-77
2022/09/24 11:48:29;;;;;;;5.25;2.85;;;;;13.00;93764.00;;;;7393522;19;20496;-76
2022/09/24 11:51:35;;;;;;;4.90;3.20;;;;;13.00;93759.00;;;;7393950;19;20155;-77
2022/09/24 11:54:29;;;;;;;2.88;2.65;;;;;13.10;93750.00;;;;7390435;19;20153;-77
2022/09/24 11:57:19;;;;;;;3.15;2.85;;;;;13.10;93751.00;;;;7391774;19;20148;-76
2022/09/24 11:59:53;;;;;;;4.95;2.95;;;;;13.30;93750.00;;;;7396468;19;20615;-76
2022/09/24 12:02:58;;;;;;;3.20;2.63;;;;;13.30;93749.00;;;;7390661;19;20133;-76
2022/09/24 12:06:01;;;;;;;3.25;2.88;;;;;13.50;93749.00;;;;7393321;19;20152;-76
2022/09/24 12:09:02;;;;;;;3.88;3.25;;;;;13.70;93744.00;;;;7391978;19;20152;-78
2022/09/24 12:11:38;;;;;;;3.55;3.25;;;;;13.70;93739.00;;;;7393701;19;20129;-77
2022/09/24 12:14:39;;;;;;;4.40;3.00;;;;;13.60;93730.00;;;;7393716;19;20141;-74
2022/09/24 12:17:42;;;;;;;4.28;3.45;;;;;13.90;93739.00;;;;7399856;19;20460;-77
2022/09/24 12:20:22;;;;;;;3.50;3.20;;;;;14.00;93734.00;;;;7396881;19;20129;-76
2022/09/24 12:22:58;;;;;;;4.00;3.22;;;;;14.00;93739.00;;;;7396462;19;20140;-77
2022/09/24 12:25:44;;;;;;;4.07;3.10;;;;;13.90;93737.00;;;;7396146;19;20140;-76
2022/09/24 12:32:53;;;;;;;3.40;3.10;;;;;14.00;93741.00;;;;7392082;19;20138;-75
2022/09/24 12:34:25;;;;;;;3.92;3.53;;;;;14.20;93730.00;;;;7393302;19;20972;-76
2022/09/24 12:37:08;;;;;;;3.78;3.05;;;;;14.10;93721.00;;;;7390117;19;20587;-73
2022/09/24 12:40:06;;;;;;;5.72;3.60;;;;;14.10;93724.00;;;;7393413;19;20153;-74
2022/09/24 12:42:46;;;;;;;2.97;2.65;;;;;14.00;93724.00;;;;7389115;19;20152;-76
2022/09/24 12:45:19;;;;;;;3.38;3.00;;;;;14.10;93723.00;;;;7393136;19;20145;-74
2022/09/24 12:47:58;;;;;;;5.50;2.90;;;;;13.90;93714.00;;;;7389050;19;20607;-74
2022/09/24 12:50:32;;;;;;;3.10;2.90;;;;;14.00;93717.00;;;;7388587;19;20637;-75
2022/09/24 12:53:24;;;;;;;4.78;3.00;;;;;13.90;93715.00;;;;7389096;19;20153;-76
2022/09/24 12:55:57;;;;;;;4.68;2.90;;;;;14.00;93718.00;;;;7387380;19;20547;-76
2022/09/24 12:58:41;;;;;;;2.90;2.63;;;;;14.00;93712.00;;;;7388446;19;20517;-74
2022/09/24 13:01:12;;;;;;;6.25;3.10;;;;;14.20;93712.00;;;;7388690;19;20132;-75
2022/09/24 13:04:00;;;;;;;8.68;3.50;;;;;14.40;93709.00;;;;7388121;19;20162;-79
2022/09/24 13:06:34;;;;;;;3.53;3.22;;;;;14.70;93699.00;;;;7382439;19;20160;-74
2022/09/24 13:09:34;;;;;;;3.42;3.00;;;;;15.20;93696.00;;;;7389329;19;20217;-76
2022/09/24 13:12:04;;;;;;;4.10;3.22;;;;;15.30;93696.00;;;;7385574;19;20237;-74
2022/09/24 13:14:48;;;;;;;10.43;7.50;;;;;15.50;93695.00;;;;7388575;19;20156;-73
2022/09/24 13:17:23;;;;;;;5.72;3.47;;;;;15.30;93686.00;;;;7389122;19;20138;-73
2022/09/24 13:20:24;;;;;;;5.80;3.40;;;;;15.50;93685.00;;;;7384718;19;20148;-74
2022/09/24 13:23:11;;;;;;;4.25;3.13;;;;;15.50;93685.00;;;;7389936;19;20143;-73